createdAt,value
2019-02-27T00:01:30.315Z,3.50
2019-02-27T00:04:13.774Z,3.70
2019-02-27T00:06:56.206Z,4.27
2019-02-27T00:09:37.943Z,3.17
2019-02-27T00:12:20.026Z,3.77
2019-02-27T00:15:04.934Z,3.83
2019-02-27T00:17:45.582Z,5.50
2019-02-27T00:20:27.682Z,3.57
2019-02-27T00:23:09.622Z,4.60
2019-02-27T00:25:51.503Z,5.00
2019-02-27T00:28:33.821Z,5.43
2019-02-27T00:31:16.249Z,7.00
2019-02-27T00:33:59.838Z,17.73
2019-02-27T00:36:44.784Z,12.13
2019-02-27T00:39:25.914Z,8.53
2019-02-27T00:42:08.514Z,6.47
2019-02-27T00:44:38.794Z,4.60
2019-02-27T00:47:29.561Z,5.97
2019-02-27T00:50:12.976Z,4.93
2019-02-27T00:52:54.954Z,5.27
2019-02-27T00:55:39.366Z,5.47
2019-02-27T00:58:20.830Z,3.83
2019-02-27T01:01:03.063Z,4.57
2019-02-27T01:03:45.218Z,4.23
2019-02-27T01:06:27.122Z,4.57
2019-02-27T01:09:07.538Z,4.57
2019-02-27T01:11:56.897Z,6.17
2019-02-27T01:14:39.962Z,6.03
2019-02-27T01:17:23.826Z,6.73
2019-02-27T01:20:05.574Z,4.43
2019-02-27T01:22:47.842Z,7.13
2019-02-27T01:25:29.716Z,8.67
2019-02-27T01:28:11.678Z,6.93
2019-02-27T01:30:53.914Z,4.67
2019-02-27T01:33:38.230Z,4.70
2019-02-27T01:36:24.223Z,5.40
2019-02-27T01:39:03.752Z,5.93
2019-02-27T01:41:45.902Z,5.10
2019-02-27T01:44:27.828Z,7.47
2019-02-27T01:47:09.910Z,5.87
2019-02-27T01:49:52.414Z,5.60
2019-02-27T01:52:34.627Z,5.50
2019-02-27T01:55:17.050Z,3.93
2019-02-27T01:57:58.782Z,2.83
2019-02-27T02:00:40.414Z,4.80
2019-02-27T02:03:22.646Z,4.90
2019-02-27T02:06:04.906Z,6.20
2019-02-27T02:08:48.256Z,5.03
2019-02-27T02:11:32.749Z,5.60
2019-02-27T02:14:14.973Z,5.67
2019-02-27T02:16:56.827Z,6.80
2019-02-27T02:19:38.665Z,5.67
2019-02-27T02:22:20.411Z,7.27
2019-02-27T02:25:02.075Z,6.10
2019-02-27T02:31:33.510Z,7.93
2019-02-27T02:34:43.499Z,5.50
2019-02-27T02:37:27.100Z,5.20
2019-02-27T02:40:09.545Z,4.93
2019-02-27T02:42:52.171Z,6.77
2019-02-27T02:45:33.959Z,4.97
2019-02-27T02:48:16.359Z,5.37
2019-02-27T02:50:58.978Z,5.77
2019-02-27T02:53:40.902Z,5.87
2019-02-27T02:56:24.868Z,4.40
2019-02-27T02:59:06.372Z,5.50
2019-02-27T03:01:49.329Z,4.87
2019-02-27T03:04:32.070Z,4.90
2019-02-27T03:07:14.138Z,4.90
2019-02-27T03:09:56.375Z,4.67
2019-02-27T03:16:05.956Z,7.00
2019-02-27T03:18:49.135Z,4.17
2019-02-27T03:21:31.358Z,5.50
2019-02-27T03:24:13.047Z,6.63
2019-02-27T03:26:54.955Z,8.20
2019-02-27T03:29:37.008Z,7.50
2019-02-27T03:32:20.323Z,6.47
2019-02-27T03:35:29.443Z,6.47
2019-02-27T03:38:12.841Z,5.00
2019-02-27T03:40:54.461Z,6.87
2019-02-27T03:43:36.359Z,4.83
2019-02-27T03:46:18.681Z,5.50
2019-02-27T03:49:03.785Z,12.50
2019-02-27T03:51:43.919Z,12.70
2019-02-27T03:54:25.728Z,9.43
2019-02-27T03:57:07.595Z,8.97
2019-02-27T03:59:49.415Z,7.37
2019-02-27T04:05:58.672Z,7.40
2019-02-27T04:08:44.810Z,6.57
2019-02-27T04:11:25.935Z,5.77
2019-02-27T04:14:08.039Z,6.57
2019-02-27T04:19:31.460Z,5.30
2019-02-27T04:22:13.527Z,4.33
2019-02-27T04:24:56.920Z,4.50
2019-02-27T04:27:39.028Z,9.03
2019-02-27T04:30:21.022Z,6.33
2019-02-27T04:33:02.723Z,7.30
2019-02-27T04:35:44.514Z,8.07
2019-02-27T04:38:27.641Z,11.70
2019-02-27T04:41:10.068Z,36.33
2019-02-27T04:43:52.037Z,62.60
2019-02-27T04:46:34.038Z,37.43
2019-02-27T04:49:16.245Z,24.30
2019-02-27T04:51:58.024Z,10.03
2019-02-27T04:54:41.654Z,9.20
2019-02-27T04:57:24.126Z,9.17
2019-02-27T05:00:06.218Z,6.77
2019-02-27T05:02:50.460Z,6.87
2019-02-27T05:05:31.916Z,5.87
2019-02-27T05:08:14.053Z,6.43
2019-02-27T05:10:56.005Z,8.07
2019-02-27T05:13:38.474Z,8.17
2019-02-27T05:16:20.421Z,8.07
2019-02-27T05:19:04.072Z,23.67
2019-02-27T05:21:46.418Z,15.33
2019-02-27T05:24:28.646Z,14.00
2019-02-27T05:27:10.879Z,8.37
2019-02-27T05:29:53.092Z,7.13
2019-02-27T05:32:38.322Z,4.53
2019-02-27T05:35:23.585Z,9.23
2019-02-27T05:38:05.235Z,5.53
2019-02-27T05:40:47.583Z,4.87
2019-02-27T05:43:30.446Z,6.53
2019-02-27T05:46:12.542Z,4.80
2019-02-27T05:48:55.086Z,5.33
2019-02-27T05:51:36.808Z,7.00
2019-02-27T05:54:18.472Z,7.00
2019-02-27T05:57:00.127Z,9.30
2019-02-27T05:59:41.943Z,6.80
2019-02-27T06:02:25.513Z,7.20
2019-02-27T06:05:08.086Z,5.33
2019-02-27T06:07:50.390Z,8.33
2019-02-27T06:10:33.054Z,6.50
2019-02-27T06:13:15.258Z,8.63
2019-02-27T06:16:02.864Z,9.17
2019-02-27T06:18:41.506Z,7.60
2019-02-27T06:21:23.372Z,7.63
2019-02-27T06:24:05.767Z,5.77
2019-02-27T06:26:49.566Z,7.13
2019-02-27T06:29:31.954Z,6.80
2019-02-27T06:32:14.090Z,7.97
2019-02-27T06:34:59.109Z,10.13
2019-02-27T06:37:39.477Z,7.23
2019-02-27T06:40:21.297Z,9.27
2019-02-27T06:43:03.672Z,7.53
2019-02-27T06:45:46.625Z,8.67
2019-02-27T06:48:29.325Z,9.53
2019-02-27T06:51:11.647Z,8.83
2019-02-27T06:53:53.444Z,8.60
2019-02-27T06:56:35.858Z,6.70
2019-02-27T06:59:18.249Z,8.77
2019-02-27T07:02:00.288Z,6.53
2019-02-27T07:04:42.266Z,9.43
2019-02-27T07:07:23.996Z,10.07
2019-02-27T07:10:05.889Z,8.13
2019-02-27T07:12:48.099Z,9.07
2019-02-27T07:15:29.850Z,7.40
2019-02-27T07:18:12.331Z,10.23
2019-02-27T07:20:55.635Z,9.07
2019-02-27T07:23:38.567Z,10.20
2019-02-27T07:26:20.802Z,8.13
2019-02-27T07:29:02.927Z,8.90
2019-02-27T07:31:33.294Z,10.60
2019-02-27T07:34:24.070Z,13.30
2019-02-27T07:37:10.448Z,11.27
2019-02-27T07:39:39.998Z,16.03
2019-02-27T07:42:31.906Z,15.43
2019-02-27T07:48:01.974Z,23.27
2019-02-27T07:50:51.342Z,20.50
2019-02-27T07:53:33.805Z,16.47
2019-02-27T07:56:15.923Z,7.17
2019-02-27T07:58:57.898Z,6.83
2019-02-27T08:01:43.756Z,4.30
2019-02-27T08:04:23.462Z,9.27
2019-02-27T08:09:47.627Z,6.53
2019-02-27T08:12:29.854Z,6.13
2019-02-27T08:15:13.533Z,4.40
2019-02-27T08:17:57.885Z,5.90
2019-02-27T08:20:38.950Z,3.37
2019-02-27T08:23:20.646Z,4.47
2019-02-27T08:26:04.784Z,3.20
2019-02-27T08:28:46.183Z,5.90
2019-02-27T08:31:28.885Z,4.03
2019-02-27T08:34:10.763Z,3.23
2019-02-27T08:36:53.322Z,2.87
2019-02-27T08:39:34.998Z,3.33
2019-02-27T08:42:16.923Z,6.33
2019-02-27T08:44:58.923Z,3.77
2019-02-27T08:47:43.187Z,3.07
2019-02-27T08:50:24.170Z,3.10
2019-02-27T08:53:06.550Z,3.53
2019-02-27T08:55:48.746Z,2.87
2019-02-27T08:58:32.893Z,4.40
2019-02-27T09:01:14.262Z,2.60
2019-02-27T09:03:56.515Z,2.60
2019-02-27T09:06:38.515Z,2.80
2019-02-27T09:09:20.629Z,2.70
2019-02-27T09:12:03.169Z,15.87
2019-02-27T09:14:45.737Z,12.40
2019-02-27T09:17:27.924Z,12.80
2019-02-27T09:20:09.534Z,9.07
2019-02-27T09:22:51.647Z,10.00
2019-02-27T09:25:33.470Z,11.13
2019-02-27T09:28:15.492Z,14.40
2019-02-27T09:30:57.407Z,8.03
2019-02-27T09:33:39.608Z,9.57
2019-02-27T09:36:21.578Z,8.43
2019-02-27T09:39:04.347Z,7.47
2019-02-27T09:41:47.070Z,7.43
2019-02-27T09:44:29.610Z,7.50
2019-02-27T09:47:11.508Z,7.37
2019-02-27T09:49:52.258Z,6.43
2019-02-27T09:52:41.594Z,5.63
2019-02-27T09:55:24.698Z,6.30
2019-02-27T09:58:10.065Z,7.83
2019-02-27T10:00:50.253Z,6.13
2019-02-27T10:03:32.946Z,8.03
2019-02-27T10:06:13.380Z,6.40
2019-02-27T10:09:02.790Z,4.60
2019-02-27T10:11:46.547Z,6.73
2019-02-27T10:14:28.863Z,5.83
2019-02-27T10:17:11.017Z,8.90
2019-02-27T10:19:53.059Z,6.27
2019-02-27T10:22:35.067Z,5.50
2019-02-27T10:25:16.682Z,4.97
2019-02-27T10:28:03.285Z,4.53
2019-02-27T10:30:42.286Z,6.23
2019-02-27T10:33:25.835Z,4.80
2019-02-27T10:36:08.083Z,9.00
2019-02-27T10:38:50.212Z,4.60
2019-02-27T10:41:32.746Z,5.03
2019-02-27T10:44:15.366Z,7.20
2019-02-27T10:47:00.046Z,5.63
2019-02-27T10:49:40.946Z,6.93
2019-02-27T10:52:24.283Z,5.57
2019-02-27T10:55:04.743Z,4.83
2019-02-27T10:57:54.138Z,6.07
2019-02-27T11:00:38.014Z,9.50
2019-02-27T11:03:19.982Z,7.57
2019-02-27T11:06:01.906Z,9.47
2019-02-27T11:08:43.985Z,7.87
2019-02-27T11:11:26.311Z,7.33
2019-02-27T11:14:08.210Z,7.93
2019-02-27T11:16:50.403Z,7.93
2019-02-27T11:19:34.815Z,7.83
2019-02-27T11:22:16.374Z,9.30
2019-02-27T11:24:58.451Z,8.67
2019-02-27T11:27:40.670Z,8.43
2019-02-27T11:30:22.779Z,7.90
2019-02-27T11:33:05.169Z,8.93
2019-02-27T11:35:47.155Z,8.87
2019-02-27T11:38:29.167Z,8.33
2019-02-27T11:41:14.972Z,7.73
2019-02-27T11:43:54.931Z,9.93
2019-02-27T11:46:38.226Z,9.63
2019-02-27T11:49:20.938Z,11.60
2019-02-27T11:52:02.603Z,14.60
2019-02-27T11:54:45.131Z,11.37
2019-02-27T11:57:27.403Z,16.50
2019-02-27T12:00:13.607Z,14.80
2019-02-27T12:02:55.415Z,7.93
2019-02-27T12:05:37.408Z,6.87
2019-02-27T12:08:19.434Z,5.93
2019-02-27T12:11:01.359Z,7.97
2019-02-27T12:13:43.358Z,8.57
2019-02-27T12:16:25.399Z,6.07
2019-02-27T12:19:08.709Z,7.30
2019-02-27T12:21:51.426Z,6.27
2019-02-27T12:24:33.728Z,6.70
2019-02-27T12:27:25.730Z,6.10
2019-02-27T12:30:03.031Z,6.03
2019-02-27T12:32:44.085Z,5.43
2019-02-27T12:35:25.588Z,5.00
2019-02-27T12:38:14.981Z,4.13
2019-02-27T12:40:59.096Z,10.73
2019-02-27T12:43:40.803Z,8.17
2019-02-27T12:46:23.080Z,7.67
2019-02-27T12:49:05.170Z,9.00
2019-02-27T12:51:47.350Z,7.60
2019-02-27T12:54:29.494Z,5.83
2019-02-27T12:57:12.026Z,6.50
2019-02-27T12:59:53.731Z,5.67
2019-02-27T13:02:36.041Z,7.07
2019-02-27T13:05:18.378Z,10.10
2019-02-27T13:08:00.154Z,11.83
2019-02-27T13:10:42.795Z,7.77
2019-02-27T13:13:25.942Z,5.77
2019-02-27T13:16:07.867Z,7.93
2019-02-27T13:18:50.343Z,7.87
2019-02-27T13:21:32.223Z,9.60
2019-02-27T13:24:15.408Z,7.57
2019-02-27T13:26:57.776Z,8.03
2019-02-27T13:29:40.270Z,12.90
2019-02-27T13:32:26.407Z,7.23
2019-02-27T13:35:06.094Z,8.37
2019-02-27T13:37:48.130Z,10.77
2019-02-27T13:40:34.944Z,10.33
2019-02-27T13:43:14.175Z,8.37
2019-02-27T13:45:55.847Z,14.00
2019-02-27T13:48:39.810Z,7.00
2019-02-27T13:51:21.498Z,5.47
2019-02-27T13:54:03.867Z,5.07
2019-02-27T13:56:45.874Z,4.90
2019-02-27T13:59:27.578Z,3.97
2019-02-27T14:02:11.357Z,5.10
2019-02-27T14:04:53.762Z,3.30
2019-02-27T14:07:36.478Z,1.80
2019-02-27T14:10:20.511Z,2.20
2019-02-27T14:13:01.743Z,2.23
2019-02-27T14:15:43.576Z,1.70
2019-02-27T14:18:25.459Z,1.77
2019-02-27T14:21:07.373Z,2.60
2019-02-27T14:23:49.447Z,2.23
2019-02-27T14:26:31.542Z,2.00
2019-02-27T14:29:14.117Z,2.67
2019-02-27T14:31:56.546Z,5.93
2019-02-27T14:34:38.907Z,13.70
2019-02-27T14:37:20.874Z,3.27
2019-02-27T14:40:04.487Z,2.53
2019-02-27T14:42:46.531Z,1.97
2019-02-27T14:45:28.712Z,2.00
2019-02-27T14:48:10.777Z,2.00
2019-02-27T14:50:52.645Z,4.03
2019-02-27T14:53:34.821Z,5.13
2019-02-27T14:56:16.539Z,2.33
2019-02-27T14:58:58.826Z,4.70
2019-02-27T15:01:41.397Z,4.67
2019-02-27T15:04:23.398Z,17.30
2019-02-27T15:07:05.842Z,6.60
2019-02-27T15:09:48.154Z,6.23
2019-02-27T15:12:29.935Z,4.57
2019-02-27T15:15:12.203Z,2.10
2019-02-27T15:17:54.684Z,3.17
2019-02-27T15:20:40.160Z,3.60
2019-02-27T15:23:20.393Z,1.70
2019-02-27T15:26:02.558Z,2.30
2019-02-27T15:28:44.181Z,3.40
2019-02-27T15:31:26.218Z,2.57
2019-02-27T15:34:06.798Z,2.37
2019-02-27T15:36:56.225Z,2.83
2019-02-27T15:39:39.726Z,3.43
2019-02-27T15:42:21.705Z,3.00
2019-02-27T15:45:09.186Z,2.90
2019-02-27T15:47:47.350Z,6.03
2019-02-27T15:50:29.274Z,7.27
2019-02-27T15:53:14.615Z,5.27
2019-02-27T15:55:55.667Z,8.17
2019-02-27T15:58:37.683Z,16.97
2019-02-27T16:01:19.734Z,6.93
2019-02-27T16:04:01.956Z,8.00
2019-02-27T16:06:43.600Z,7.17
2019-02-27T16:09:25.354Z,10.90
2019-02-27T16:12:07.031Z,18.23
2019-02-27T16:14:48.726Z,6.17
2019-02-27T16:17:31.959Z,6.40
2019-02-27T16:20:16.152Z,6.17
2019-02-27T16:22:58.332Z,6.77
2019-02-27T16:25:40.806Z,37.87
2019-02-27T16:28:22.881Z,12.13
2019-02-27T16:31:06.369Z,22.90
2019-02-27T16:33:49.333Z,51.97
2019-02-27T16:36:36.258Z,23.50
2019-02-27T16:39:16.066Z,9.50
2019-02-27T16:42:01.017Z,84.87
2019-02-27T16:44:41.620Z,18.57
2019-02-27T16:47:23.727Z,17.20
2019-02-27T16:50:06.113Z,63.47
2019-02-27T16:52:47.806Z,17.17
2019-02-27T16:55:29.871Z,12.87
2019-02-27T16:58:12.090Z,12.17
2019-02-27T17:00:55.433Z,10.30
2019-02-27T17:03:35.978Z,9.23
2019-02-27T17:06:19.113Z,12.83
2019-02-27T17:09:00.939Z,14.47
2019-02-27T17:11:43.083Z,11.83
2019-02-27T17:14:24.954Z,11.10
2019-02-27T17:17:06.728Z,13.70
2019-02-27T17:19:48.592Z,18.07
2019-02-27T17:22:33.410Z,17.63
2019-02-27T17:25:14.231Z,18.77
2019-02-27T17:27:56.334Z,27.43
2019-02-27T17:30:38.580Z,32.80
2019-02-27T17:33:20.254Z,26.13
2019-02-27T17:36:02.265Z,52.63
2019-02-27T17:38:45.264Z,56.00
2019-02-27T17:41:28.250Z,23.47
2019-02-27T17:44:10.151Z,14.13
2019-02-27T17:46:54.832Z,10.27
2019-02-27T17:49:35.915Z,21.57
2019-02-27T17:52:17.783Z,36.80
2019-02-27T17:54:59.810Z,37.37
2019-02-27T17:57:42.260Z,40.20
2019-02-27T18:00:31.156Z,17.37
2019-02-27T18:03:22.029Z,14.70
2019-02-27T18:06:05.726Z,29.97
2019-02-27T18:08:51.577Z,26.43
2019-02-27T18:11:32.491Z,40.37
2019-02-27T18:14:14.527Z,14.63
2019-02-27T18:17:03.822Z,12.77
2019-02-27T18:19:54.825Z,14.27
2019-02-27T18:22:38.387Z,13.47
2019-02-27T18:25:20.247Z,20.33
2019-02-27T18:28:02.124Z,17.43
2019-02-27T18:30:44.178Z,15.77
2019-02-27T18:33:25.794Z,13.80
2019-02-27T18:36:07.453Z,11.63
2019-02-27T18:38:49.400Z,12.80
2019-02-27T18:41:31.210Z,13.03
2019-02-27T18:44:12.878Z,11.87
2019-02-27T18:46:56.176Z,20.60
2019-02-27T18:49:44.488Z,32.13
2019-02-27T18:52:26.165Z,34.10
2019-02-27T18:54:56.583Z,28.30
2019-02-27T18:57:47.706Z,26.73
2019-02-27T19:00:33.400Z,20.20
2019-02-27T19:03:15.502Z,17.70
2019-02-27T19:05:45.900Z,15.63
2019-02-27T19:08:36.784Z,15.67
2019-02-27T19:11:22.301Z,13.63
2019-02-27T19:14:05.829Z,13.77
2019-02-27T19:16:48.145Z,16.77
2019-02-27T19:19:29.838Z,21.03
2019-02-27T19:22:11.932Z,17.60
2019-02-27T19:24:53.850Z,19.37
2019-02-27T19:27:37.569Z,18.47
2019-02-27T19:30:19.618Z,14.17
2019-02-27T19:33:02.103Z,16.00
2019-02-27T19:35:32.468Z,15.93
2019-02-27T19:38:23.362Z,13.67
2019-02-27T19:41:06.922Z,16.23
2019-02-27T19:43:55.007Z,12.70
2019-02-27T19:46:33.537Z,12.60
2019-02-27T19:49:15.638Z,15.30
2019-02-27T19:51:57.264Z,13.87
2019-02-27T19:54:39.162Z,16.30
2019-02-27T19:57:21.450Z,17.40
2019-02-27T20:00:03.194Z,34.33
2019-02-27T20:02:45.146Z,35.83
2019-02-27T20:05:27.058Z,26.63
2019-02-27T20:08:10.806Z,19.00
2019-02-27T20:10:52.911Z,20.00
2019-02-27T20:13:33.371Z,19.27
2019-02-27T20:16:03.697Z,21.77
2019-02-27T20:18:54.542Z,19.80
2019-02-27T20:21:31.685Z,19.47
2019-02-27T20:24:14.740Z,17.07
2019-02-27T20:26:57.143Z,17.40
2019-02-27T20:29:40.574Z,16.53
2019-02-27T20:32:28.371Z,18.43
2019-02-27T20:35:07.643Z,16.70
2019-02-27T20:37:49.832Z,13.80
2019-02-27T20:43:21.826Z,12.83
2019-02-27T20:45:54.666Z,9.90
2019-02-27T20:48:48.523Z,11.53
2019-02-27T20:51:30.390Z,11.93
2019-02-27T20:54:12.919Z,17.67
2019-02-27T20:56:56.490Z,13.33
2019-02-27T20:59:38.390Z,14.30
2019-02-27T21:02:09.882Z,14.07
2019-02-27T21:07:53.407Z,14.77
2019-02-27T21:10:38.090Z,13.93
2019-02-27T21:13:20.564Z,12.53
2019-02-27T21:16:03.949Z,13.00
2019-02-27T21:18:46.943Z,12.97
2019-02-27T21:21:29.062Z,11.23
2019-02-27T21:24:11.354Z,10.30
2019-02-27T21:26:54.194Z,11.07
2019-02-27T21:29:36.123Z,13.77
2019-02-27T21:32:20.795Z,11.87
2019-02-27T21:35:03.432Z,12.77
2019-02-27T21:37:45.787Z,11.67
2019-02-27T21:40:27.633Z,10.17
2019-02-27T21:43:09.479Z,7.83
2019-02-27T21:45:51.621Z,10.13
2019-02-27T21:48:33.540Z,10.43
2019-02-27T21:51:15.519Z,11.77
2019-02-27T21:53:56.014Z,11.57
2019-02-27T21:59:46.911Z,10.80
2019-02-27T22:02:30.060Z,12.37
2019-02-27T22:05:18.665Z,10.53
2019-02-27T22:07:56.631Z,14.20
2019-02-27T22:10:39.640Z,14.10
2019-02-27T22:13:29.473Z,15.17
2019-02-27T22:16:05.501Z,13.07
2019-02-27T22:18:47.870Z,13.17
2019-02-27T22:21:34.183Z,12.67
2019-02-27T22:24:20.720Z,11.80
2019-02-27T22:27:00.158Z,9.13
2019-02-27T22:29:42.287Z,52.40
2019-02-27T22:32:25.198Z,14.97
2019-02-27T22:35:07.106Z,14.33
2019-02-27T22:37:52.375Z,14.40
2019-02-27T22:40:33.667Z,13.93
2019-02-27T22:43:15.808Z,15.83
2019-02-27T22:45:56.226Z,14.70
2019-02-27T22:48:45.668Z,15.60
2019-02-27T22:51:29.553Z,15.67
2019-02-27T22:54:11.466Z,11.57
2019-02-27T22:56:53.268Z,14.07
2019-02-27T22:59:37.339Z,11.30
2019-02-27T23:02:21.605Z,14.70
2019-02-27T23:05:04.922Z,16.77
2019-02-27T23:07:48.149Z,15.77
2019-02-27T23:10:30.992Z,15.30
2019-02-27T23:13:21.231Z,13.77
2019-02-27T23:16:04.785Z,14.07
2019-02-27T23:18:46.814Z,13.93
2019-02-27T23:21:28.875Z,18.30
2019-02-27T23:23:59.361Z,18.27
2019-02-27T23:26:54.331Z,14.07
2019-02-27T23:29:40.516Z,14.93
2019-02-27T23:32:10.966Z,13.20
2019-02-27T23:35:01.860Z,12.90
2019-02-27T23:37:32.311Z,12.67
2019-02-27T23:40:23.225Z,12.67
2019-02-27T23:43:06.513Z,11.23
2019-02-27T23:45:48.388Z,13.53
2019-02-27T23:48:30.039Z,11.67
2019-02-27T23:51:15.827Z,10.67
2019-02-27T23:53:55.330Z,8.80
2019-02-27T23:56:37.282Z,7.13
2019-02-27T23:59:19.606Z,9.23
